sensor_id;sensor_type;location;lat;lon;timestamp;P1;durP1;ratioP1;P2;durP2;ratioP2
20928;SDS011;21895;47.072;15.132;2023-02-15T00:00:17;50.80;;;15.70;;
20928;SDS011;21895;47.072;15.132;2023-02-15T00:02:44;43.50;;;15.23;;
20928;SDS011;21895;47.072;15.132;2023-02-15T00:05:10;30.67;;;13.80;;
20928;SDS011;21895;47.072;15.132;2023-02-15T00:07:37;34.77;;;13.17;;
20928;SDS011;21895;47.072;15.132;2023-02-15T00:10:04;31.47;;;12.33;;
20928;SDS011;21895;47.072;15.132;2023-02-15T00:12:33;36.23;;;13.13;;
20928;SDS011;21895;47.072;15.132;2023-02-15T00:14:59;43.73;;;13.27;;
20928;SDS011;21895;47.072;15.132;2023-02-15T00:17:27;35.23;;;13.47;;
20928;SDS011;21895;47.072;15.132;2023-02-15T00:19:54;34.37;;;12.50;;
20928;SDS011;21895;47.072;15.132;2023-02-15T00:22:20;36.67;;;11.80;;
20928;SDS011;21895;47.072;15.132;2023-02-15T00:24:47;34.83;;;13.23;;
20928;SDS011;21895;47.072;15.132;2023-02-15T00:27:15;31.00;;;13.70;;
20928;SDS011;21895;47.072;15.132;2023-02-15T00:29:41;39.57;;;15.47;;
20928;SDS011;21895;47.072;15.132;2023-02-15T00:32:08;43.80;;;15.17;;
20928;SDS011;21895;47.072;15.132;2023-02-15T00:34:34;44.80;;;15.40;;
20928;SDS011;21895;47.072;15.132;2023-02-15T00:37:01;41.37;;;15.50;;
20928;SDS011;21895;47.072;15.132;2023-02-15T00:39:27;46.00;;;16.13;;
20928;SDS011;21895;47.072;15.132;2023-02-15T00:41:54;48.37;;;16.70;;
20928;SDS011;21895;47.072;15.132;2023-02-15T00:44:20;51.87;;;17.97;;
20928;SDS011;21895;47.072;15.132;2023-02-15T00:46:47;46.00;;;16.07;;
20928;SDS011;21895;47.072;15.132;2023-02-15T00:49:13;43.77;;;16.13;;
20928;SDS011;21895;47.072;15.132;2023-02-15T00:51:40;43.10;;;16.47;;
20928;SDS011;21895;47.072;15.132;2023-02-15T00:54:06;46.37;;;16.00;;
20928;SDS011;21895;47.072;15.132;2023-02-15T00:56:33;43.83;;;15.53;;
20928;SDS011;21895;47.072;15.132;2023-02-15T00:58:59;41.80;;;16.20;;
20928;SDS011;21895;47.072;15.132;2023-02-15T01:01:26;42.23;;;16.20;;
20928;SDS011;21895;47.072;15.132;2023-02-15T01:03:53;44.77;;;16.73;;
20928;SDS011;21895;47.072;15.132;2023-02-15T01:06:19;41.80;;;15.87;;
20928;SDS011;21895;47.072;15.132;2023-02-15T01:08:46;40.00;;;16.83;;
20928;SDS011;21895;47.072;15.132;2023-02-15T01:11:14;42.67;;;16.27;;
20928;SDS011;21895;47.072;15.132;2023-02-15T01:13:51;39.57;;;15.60;;
20928;SDS011;21895;47.072;15.132;2023-02-15T01:16:20;41.47;;;15.63;;
20928;SDS011;21895;47.072;15.132;2023-02-15T01:18:48;42.03;;;15.90;;
20928;SDS011;21895;47.072;15.132;2023-02-15T01:21:16;35.57;;;15.37;;
20928;SDS011;21895;47.072;15.132;2023-02-15T01:23:48;40.07;;;15.53;;
20928;SDS011;21895;47.072;15.132;2023-02-15T01:26:15;41.97;;;15.50;;
20928;SDS011;21895;47.072;15.132;2023-02-15T01:28:42;41.93;;;16.00;;
20928;SDS011;21895;47.072;15.132;2023-02-15T01:31:10;39.23;;;14.37;;
20928;SDS011;21895;47.072;15.132;2023-02-15T01:33:41;35.80;;;14.13;;
20928;SDS011;21895;47.072;15.132;2023-02-15T01:36:08;39.53;;;14.30;;
20928;SDS011;21895;47.072;15.132;2023-02-15T01:38:35;43.10;;;15.33;;
20928;SDS011;21895;47.072;15.132;2023-02-15T01:41:02;46.23;;;14.33;;
20928;SDS011;21895;47.072;15.132;2023-02-15T01:43:48;39.90;;;15.67;;
20928;SDS011;21895;47.072;15.132;2023-02-15T01:46:37;36.30;;;15.53;;
20928;SDS011;21895;47.072;15.132;2023-02-15T01:49:17;37.00;;;14.43;;
20928;SDS011;21895;47.072;15.132;2023-02-15T01:51:51;36.17;;;14.80;;
20928;SDS011;21895;47.072;15.132;2023-02-15T01:54:36;33.93;;;13.67;;
20928;SDS011;21895;47.072;15.132;2023-02-15T01:57:08;44.87;;;16.67;;
20928;SDS011;21895;47.072;15.132;2023-02-15T01:59:43;38.93;;;15.40;;
20928;SDS011;21895;47.072;15.132;2023-02-15T02:02:16;33.57;;;14.60;;
20928;SDS011;21895;47.072;15.132;2023-02-15T02:04:50;43.23;;;14.43;;
20928;SDS011;21895;47.072;15.132;2023-02-15T02:07:21;37.00;;;15.07;;
20928;SDS011;21895;47.072;15.132;2023-02-15T02:09:52;44.37;;;14.93;;
20928;SDS011;21895;47.072;15.132;2023-02-15T02:12:19;46.43;;;14.77;;
20928;SDS011;21895;47.072;15.132;2023-02-15T02:14:48;43.37;;;15.67;;
20928;SDS011;21895;47.072;15.132;2023-02-15T02:23:00;44.90;;;15.10;;
20928;SDS011;21895;47.072;15.132;2023-02-15T02:26:09;39.30;;;14.37;;
20928;SDS011;21895;47.072;15.132;2023-02-15T02:34:01;36.97;;;13.97;;
20928;SDS011;21895;47.072;15.132;2023-02-15T02:47:17;29.70;;;13.17;;
20928;SDS011;21895;47.072;15.132;2023-02-15T02:49:59;41.90;;;15.63;;
20928;SDS011;21895;47.072;15.132;2023-02-15T02:52:51;36.43;;;14.13;;
20928;SDS011;21895;47.072;15.132;2023-02-15T03:01:07;42.50;;;13.27;;
20928;SDS011;21895;47.072;15.132;2023-02-15T03:04:14;41.40;;;14.73;;
20928;SDS011;21895;47.072;15.132;2023-02-15T03:06:51;37.83;;;14.87;;
20928;SDS011;21895;47.072;15.132;2023-02-15T03:09:42;40.27;;;14.67;;
20928;SDS011;21895;47.072;15.132;2023-02-15T03:12:17;37.80;;;14.73;;
20928;SDS011;21895;47.072;15.132;2023-02-15T03:14:57;37.00;;;14.17;;
20928;SDS011;21895;47.072;15.132;2023-02-15T03:17:32;35.37;;;14.47;;
20928;SDS011;21895;47.072;15.132;2023-02-15T03:20:07;49.73;;;15.17;;
20928;SDS011;21895;47.072;15.132;2023-02-15T03:22:51;36.47;;;14.10;;
20928;SDS011;21895;47.072;15.132;2023-02-15T03:25:26;37.13;;;14.97;;
20928;SDS011;21895;47.072;15.132;2023-02-15T03:28:13;40.47;;;16.00;;
20928;SDS011;21895;47.072;15.132;2023-02-15T03:30:49;45.87;;;15.00;;
20928;SDS011;21895;47.072;15.132;2023-02-15T03:33:21;36.27;;;14.67;;
20928;SDS011;21895;47.072;15.132;2023-02-15T03:35:53;37.40;;;15.27;;
20928;SDS011;21895;47.072;15.132;2023-02-15T03:41:14;36.50;;;12.73;;
20928;SDS011;21895;47.072;15.132;2023-02-15T03:43:49;31.30;;;14.07;;
20928;SDS011;21895;47.072;15.132;2023-02-15T03:46:43;36.40;;;13.90;;
20928;SDS011;21895;47.072;15.132;2023-02-15T03:49:30;36.93;;;13.60;;
20928;SDS011;21895;47.072;15.132;2023-02-15T03:52:14;35.67;;;13.83;;
20928;SDS011;21895;47.072;15.132;2023-02-15T03:54:42;32.47;;;13.97;;
20928;SDS011;21895;47.072;15.132;2023-02-15T03:57:13;40.27;;;14.17;;
20928;SDS011;21895;47.072;15.132;2023-02-15T04:00:16;42.50;;;14.70;;
20928;SDS011;21895;47.072;15.132;2023-02-15T04:03:15;35.27;;;14.63;;
20928;SDS011;21895;47.072;15.132;2023-02-15T04:06:37;41.40;;;14.43;;
20928;SDS011;21895;47.072;15.132;2023-02-15T04:09:04;40.03;;;14.80;;
20928;SDS011;21895;47.072;15.132;2023-02-15T04:11:48;37.43;;;14.17;;
20928;SDS011;21895;47.072;15.132;2023-02-15T04:14:15;39.73;;;15.27;;
20928;SDS011;21895;47.072;15.132;2023-02-15T04:17:00;41.33;;;14.17;;
20928;SDS011;21895;47.072;15.132;2023-02-15T04:19:26;37.10;;;13.47;;
20928;SDS011;21895;47.072;15.132;2023-02-15T04:22:11;33.97;;;14.73;;
20928;SDS011;21895;47.072;15.132;2023-02-15T04:24:56;41.00;;;14.47;;
20928;SDS011;21895;47.072;15.132;2023-02-15T04:27:38;47.93;;;15.03;;
20928;SDS011;21895;47.072;15.132;2023-02-15T04:30:16;40.53;;;15.63;;
20928;SDS011;21895;47.072;15.132;2023-02-15T04:32:45;44.17;;;14.87;;
20928;SDS011;21895;47.072;15.132;2023-02-15T04:35:12;44.23;;;13.90;;
20928;SDS011;21895;47.072;15.132;2023-02-15T04:37:40;45.13;;;14.27;;
20928;SDS011;21895;47.072;15.132;2023-02-15T04:40:09;44.00;;;13.87;;
20928;SDS011;21895;47.072;15.132;2023-02-15T04:42:38;43.20;;;14.70;;
20928;SDS011;21895;47.072;15.132;2023-02-15T04:45:05;45.27;;;14.67;;
20928;SDS011;21895;47.072;15.132;2023-02-15T04:47:32;48.83;;;15.53;;
20928;SDS011;21895;47.072;15.132;2023-02-15T04:49:59;43.17;;;15.00;;
20928;SDS011;21895;47.072;15.132;2023-02-15T04:52:25;42.03;;;14.83;;
20928;SDS011;21895;47.072;15.132;2023-02-15T04:54:52;46.03;;;14.57;;
20928;SDS011;21895;47.072;15.132;2023-02-15T04:57:18;46.87;;;15.17;;
20928;SDS011;21895;47.072;15.132;2023-02-15T04:59:45;40.37;;;14.83;;
20928;SDS011;21895;47.072;15.132;2023-02-15T05:02:11;58.47;;;17.30;;
20928;SDS011;21895;47.072;15.132;2023-02-15T05:04:38;53.40;;;16.97;;
20928;SDS011;21895;47.072;15.132;2023-02-15T05:07:04;55.80;;;17.40;;
20928;SDS011;21895;47.072;15.132;2023-02-15T05:09:33;41.00;;;14.57;;
20928;SDS011;21895;47.072;15.132;2023-02-15T05:12:00;49.93;;;16.30;;
20928;SDS011;21895;47.072;15.132;2023-02-15T05:14:26;45.03;;;16.00;;
20928;SDS011;21895;47.072;15.132;2023-02-15T05:16:55;46.50;;;15.17;;
20928;SDS011;21895;47.072;15.132;2023-02-15T05:19:21;49.90;;;15.57;;
20928;SDS011;21895;47.072;15.132;2023-02-15T05:21:49;50.63;;;16.00;;
20928;SDS011;21895;47.072;15.132;2023-02-15T05:24:16;47.37;;;15.67;;
20928;SDS011;21895;47.072;15.132;2023-02-15T05:27:01;53.47;;;15.80;;
20928;SDS011;21895;47.072;15.132;2023-02-15T05:29:46;48.17;;;15.37;;
20928;SDS011;21895;47.072;15.132;2023-02-15T05:32:13;51.93;;;14.53;;
20928;SDS011;21895;47.072;15.132;2023-02-15T05:34:40;49.57;;;15.80;;
20928;SDS011;21895;47.072;15.132;2023-02-15T05:37:06;47.83;;;15.37;;
20928;SDS011;21895;47.072;15.132;2023-02-15T05:39:33;52.50;;;16.37;;
20928;SDS011;21895;47.072;15.132;2023-02-15T05:42:00;47.93;;;16.10;;
20928;SDS011;21895;47.072;15.132;2023-02-15T05:44:26;53.10;;;15.80;;
20928;SDS011;21895;47.072;15.132;2023-02-15T05:46:53;49.97;;;15.60;;
20928;SDS011;21895;47.072;15.132;2023-02-15T05:49:19;51.20;;;15.07;;
20928;SDS011;21895;47.072;15.132;2023-02-15T05:51:46;49.60;;;15.83;;
20928;SDS011;21895;47.072;15.132;2023-02-15T05:54:12;53.07;;;15.43;;
20928;SDS011;21895;47.072;15.132;2023-02-15T05:56:39;46.73;;;14.83;;
20928;SDS011;21895;47.072;15.132;2023-02-15T05:59:05;42.03;;;13.30;;
20928;SDS011;21895;47.072;15.132;2023-02-15T06:01:32;50.33;;;14.70;;
20928;SDS011;21895;47.072;15.132;2023-02-15T06:03:58;44.63;;;14.37;;
20928;SDS011;21895;47.072;15.132;2023-02-15T06:06:25;49.50;;;16.00;;
20928;SDS011;21895;47.072;15.132;2023-02-15T06:08:51;48.33;;;15.23;;
20928;SDS011;21895;47.072;15.132;2023-02-15T06:11:18;45.80;;;14.37;;
20928;SDS011;21895;47.072;15.132;2023-02-15T06:13:44;53.93;;;13.93;;
20928;SDS011;21895;47.072;15.132;2023-02-15T06:16:11;44.47;;;15.40;;
20928;SDS011;21895;47.072;15.132;2023-02-15T06:18:37;44.33;;;15.57;;
20928;SDS011;21895;47.072;15.132;2023-02-15T06:21:04;43.73;;;13.90;;
20928;SDS011;21895;47.072;15.132;2023-02-15T06:23:30;44.27;;;13.57;;
20928;SDS011;21895;47.072;15.132;2023-02-15T06:25:57;40.17;;;13.93;;
20928;SDS011;21895;47.072;15.132;2023-02-15T06:28:23;43.03;;;13.87;;
20928;SDS011;21895;47.072;15.132;2023-02-15T06:30:51;44.53;;;13.23;;
20928;SDS011;21895;47.072;15.132;2023-02-15T06:33:17;42.00;;;12.57;;
20928;SDS011;21895;47.072;15.132;2023-02-15T06:35:44;41.90;;;13.53;;
20928;SDS011;21895;47.072;15.132;2023-02-15T06:38:11;44.00;;;13.63;;
20928;SDS011;21895;47.072;15.132;2023-02-15T06:40:38;35.60;;;12.13;;
20928;SDS011;21895;47.072;15.132;2023-02-15T06:43:05;40.47;;;12.33;;
20928;SDS011;21895;47.072;15.132;2023-02-15T06:45:31;46.37;;;12.20;;
20928;SDS011;21895;47.072;15.132;2023-02-15T06:47:58;35.33;;;12.27;;
20928;SDS011;21895;47.072;15.132;2023-02-15T06:50:24;40.27;;;12.33;;
20928;SDS011;21895;47.072;15.132;2023-02-15T06:52:55;33.47;;;11.70;;
20928;SDS011;21895;47.072;15.132;2023-02-15T06:55:23;38.97;;;12.67;;
20928;SDS011;21895;47.072;15.132;2023-02-15T06:57:50;41.50;;;12.70;;
20928;SDS011;21895;47.072;15.132;2023-02-15T07:00:16;40.33;;;12.30;;
20928;SDS011;21895;47.072;15.132;2023-02-15T07:02:44;36.57;;;12.37;;
20928;SDS011;21895;47.072;15.132;2023-02-15T07:05:12;40.03;;;13.83;;
20928;SDS011;21895;47.072;15.132;2023-02-15T07:07:39;38.90;;;12.63;;
20928;SDS011;21895;47.072;15.132;2023-02-15T07:10:06;46.00;;;13.93;;
20928;SDS011;21895;47.072;15.132;2023-02-15T07:12:32;45.83;;;12.90;;
20928;SDS011;21895;47.072;15.132;2023-02-15T07:15:10;40.53;;;12.87;;
20928;SDS011;21895;47.072;15.132;2023-02-15T07:17:40;36.63;;;12.03;;
20928;SDS011;21895;47.072;15.132;2023-02-15T07:20:12;43.63;;;14.33;;
20928;SDS011;21895;47.072;15.132;2023-02-15T07:22:42;38.70;;;12.07;;
20928;SDS011;21895;47.072;15.132;2023-02-15T07:25:09;39.33;;;13.60;;
20928;SDS011;21895;47.072;15.132;2023-02-15T07:27:37;41.83;;;12.13;;
20928;SDS011;21895;47.072;15.132;2023-02-15T07:30:05;39.60;;;12.50;;
20928;SDS011;21895;47.072;15.132;2023-02-15T07:32:36;37.07;;;12.60;;
20928;SDS011;21895;47.072;15.132;2023-02-15T07:35:58;40.63;;;12.70;;
20928;SDS011;21895;47.072;15.132;2023-02-15T07:38:34;42.63;;;13.23;;
20928;SDS011;21895;47.072;15.132;2023-02-15T07:41:04;37.53;;;12.00;;
20928;SDS011;21895;47.072;15.132;2023-02-15T07:43:37;38.97;;;13.70;;
20928;SDS011;21895;47.072;15.132;2023-02-15T07:46:07;38.47;;;12.73;;
20928;SDS011;21895;47.072;15.132;2023-02-15T07:48:37;39.07;;;12.53;;
20928;SDS011;21895;47.072;15.132;2023-02-15T07:51:06;34.03;;;12.03;;
20928;SDS011;21895;47.072;15.132;2023-02-15T07:53:35;41.10;;;13.30;;
20928;SDS011;21895;47.072;15.132;2023-02-15T07:56:05;37.70;;;12.90;;
20928;SDS011;21895;47.072;15.132;2023-02-15T07:58:41;48.23;;;12.27;;
20928;SDS011;21895;47.072;15.132;2023-02-15T08:01:26;37.23;;;11.27;;
20928;SDS011;21895;47.072;15.132;2023-02-15T08:03:57;36.00;;;12.17;;
20928;SDS011;21895;47.072;15.132;2023-02-15T08:06:25;40.53;;;13.17;;
20928;SDS011;21895;47.072;15.132;2023-02-15T08:08:55;31.13;;;11.53;;
20928;SDS011;21895;47.072;15.132;2023-02-15T08:11:22;35.00;;;13.13;;
20928;SDS011;21895;47.072;15.132;2023-02-15T08:14:02;38.57;;;13.10;;
20928;SDS011;21895;47.072;15.132;2023-02-15T08:16:35;34.90;;;12.20;;
20928;SDS011;21895;47.072;15.132;2023-02-15T08:19:11;36.93;;;12.43;;
20928;SDS011;21895;47.072;15.132;2023-02-15T08:21:56;32.77;;;12.27;;
20928;SDS011;21895;47.072;15.132;2023-02-15T08:24:34;35.73;;;11.73;;
20928;SDS011;21895;47.072;15.132;2023-02-15T08:27:03;33.07;;;12.93;;
20928;SDS011;21895;47.072;15.132;2023-02-15T08:29:32;28.40;;;11.13;;
20928;SDS011;21895;47.072;15.132;2023-02-15T08:32:02;31.90;;;11.33;;
20928;SDS011;21895;47.072;15.132;2023-02-15T08:34:36;39.57;;;12.37;;
20928;SDS011;21895;47.072;15.132;2023-02-15T08:37:05;35.40;;;12.63;;
20928;SDS011;21895;47.072;15.132;2023-02-15T08:39:32;28.53;;;11.03;;
20928;SDS011;21895;47.072;15.132;2023-02-15T08:41:59;36.33;;;12.07;;
20928;SDS011;21895;47.072;15.132;2023-02-15T08:44:25;34.97;;;13.60;;
20928;SDS011;21895;47.072;15.132;2023-02-15T08:46:52;35.17;;;11.87;;
20928;SDS011;21895;47.072;15.132;2023-02-15T08:49:20;36.77;;;12.73;;
20928;SDS011;21895;47.072;15.132;2023-02-15T08:51:47;37.80;;;12.30;;
20928;SDS011;21895;47.072;15.132;2023-02-15T08:54:16;39.03;;;13.43;;
20928;SDS011;21895;47.072;15.132;2023-02-15T08:56:46;37.33;;;12.30;;
20928;SDS011;21895;47.072;15.132;2023-02-15T08:59:17;35.03;;;13.07;;
20928;SDS011;21895;47.072;15.132;2023-02-15T09:01:47;36.47;;;12.77;;
20928;SDS011;21895;47.072;15.132;2023-02-15T09:04:17;34.33;;;12.30;;
20928;SDS011;21895;47.072;15.132;2023-02-15T09:06:45;38.73;;;13.03;;
20928;SDS011;21895;47.072;15.132;2023-02-15T09:09:15;36.13;;;12.73;;
20928;SDS011;21895;47.072;15.132;2023-02-15T09:11:44;40.03;;;12.23;;
20928;SDS011;21895;47.072;15.132;2023-02-15T09:14:24;36.43;;;13.23;;
20928;SDS011;21895;47.072;15.132;2023-02-15T09:16:52;36.23;;;12.80;;
20928;SDS011;21895;47.072;15.132;2023-02-15T09:19:20;34.40;;;12.70;;
20928;SDS011;21895;47.072;15.132;2023-02-15T09:21:48;39.63;;;13.43;;
20928;SDS011;21895;47.072;15.132;2023-02-15T09:24:16;33.53;;;12.67;;
20928;SDS011;21895;47.072;15.132;2023-02-15T09:26:44;38.53;;;12.70;;
20928;SDS011;21895;47.072;15.132;2023-02-15T09:29:13;37.27;;;12.77;;
20928;SDS011;21895;47.072;15.132;2023-02-15T09:31:44;42.93;;;13.37;;
20928;SDS011;21895;47.072;15.132;2023-02-15T09:34:16;39.33;;;14.03;;
20928;SDS011;21895;47.072;15.132;2023-02-15T09:36:46;37.43;;;12.87;;
20928;SDS011;21895;47.072;15.132;2023-02-15T09:39:23;38.53;;;13.23;;
20928;SDS011;21895;47.072;15.132;2023-02-15T09:46:22;35.33;;;12.33;;
20928;SDS011;21895;47.072;15.132;2023-02-15T09:54:38;39.47;;;13.17;;
20928;SDS011;21895;47.072;15.132;2023-02-15T09:57:52;39.63;;;12.63;;
20928;SDS011;21895;47.072;15.132;2023-02-15T10:02:35;39.67;;;13.10;;
20928;SDS011;21895;47.072;15.132;2023-02-15T10:07:24;36.93;;;12.27;;
20928;SDS011;21895;47.072;15.132;2023-02-15T10:11:41;42.50;;;13.23;;
20928;SDS011;21895;47.072;15.132;2023-02-15T10:17:18;41.30;;;13.57;;
20928;SDS011;21895;47.072;15.132;2023-02-15T10:21:39;40.43;;;14.27;;
20928;SDS011;21895;47.072;15.132;2023-02-15T10:24:46;40.00;;;13.67;;
20928;SDS011;21895;47.072;15.132;2023-02-15T10:29:29;40.90;;;14.47;;
20928;SDS011;21895;47.072;15.132;2023-02-15T10:33:12;38.07;;;13.17;;
20928;SDS011;21895;47.072;15.132;2023-02-15T10:41:56;39.27;;;13.43;;
20928;SDS011;21895;47.072;15.132;2023-02-15T10:46:08;39.27;;;12.27;;
20928;SDS011;21895;47.072;15.132;2023-02-15T11:03:40;33.70;;;12.13;;
20928;SDS011;21895;47.072;15.132;2023-02-15T11:09:22;34.23;;;11.30;;
20928;SDS011;21895;47.072;15.132;2023-02-15T11:11:59;34.23;;;11.93;;
20928;SDS011;21895;47.072;15.132;2023-02-15T11:18:34;32.50;;;12.23;;
20928;SDS011;21895;47.072;15.132;2023-02-15T11:21:08;35.50;;;13.77;;
20928;SDS011;21895;47.072;15.132;2023-02-15T11:24:20;36.53;;;13.93;;
20928;SDS011;21895;47.072;15.132;2023-02-15T11:27:00;31.77;;;13.93;;
20928;SDS011;21895;47.072;15.132;2023-02-15T11:29:48;33.70;;;13.67;;
20928;SDS011;21895;47.072;15.132;2023-02-15T11:32:45;36.70;;;13.37;;
20928;SDS011;21895;47.072;15.132;2023-02-15T11:35:20;39.73;;;14.00;;
20928;SDS011;21895;47.072;15.132;2023-02-15T11:38:05;34.20;;;14.00;;
20928;SDS011;21895;47.072;15.132;2023-02-15T11:40:46;34.73;;;13.70;;
20928;SDS011;21895;47.072;15.132;2023-02-15T11:48:12;34.37;;;13.27;;
20928;SDS011;21895;47.072;15.132;2023-02-15T11:50:41;39.57;;;15.20;;
20928;SDS011;21895;47.072;15.132;2023-02-15T11:53:19;41.30;;;15.87;;
20928;SDS011;21895;47.072;15.132;2023-02-15T11:55:53;43.30;;;15.77;;
20928;SDS011;21895;47.072;15.132;2023-02-15T11:58:32;40.43;;;14.70;;
20928;SDS011;21895;47.072;15.132;2023-02-15T12:01:19;36.90;;;15.27;;
20928;SDS011;21895;47.072;15.132;2023-02-15T12:04:10;40.17;;;14.77;;
20928;SDS011;21895;47.072;15.132;2023-02-15T12:07:21;38.07;;;14.73;;
20928;SDS011;21895;47.072;15.132;2023-02-15T12:13:14;40.90;;;15.60;;
20928;SDS011;21895;47.072;15.132;2023-02-15T12:15:44;41.10;;;14.97;;
20928;SDS011;21895;47.072;15.132;2023-02-15T12:18:19;40.03;;;14.80;;
20928;SDS011;21895;47.072;15.132;2023-02-15T12:21:23;40.83;;;15.70;;
20928;SDS011;21895;47.072;15.132;2023-02-15T12:23:58;36.83;;;15.87;;
20928;SDS011;21895;47.072;15.132;2023-02-15T12:26:43;33.30;;;14.53;;
20928;SDS011;21895;47.072;15.132;2023-02-15T12:29:21;45.60;;;15.40;;
20928;SDS011;21895;47.072;15.132;2023-02-15T12:31:53;38.47;;;14.73;;
20928;SDS011;21895;47.072;15.132;2023-02-15T12:34:21;34.33;;;14.33;;
20928;SDS011;21895;47.072;15.132;2023-02-15T12:37:02;36.90;;;14.70;;
20928;SDS011;21895;47.072;15.132;2023-02-15T12:39:50;36.07;;;15.07;;
20928;SDS011;21895;47.072;15.132;2023-02-15T12:42:43;40.10;;;15.57;;
20928;SDS011;21895;47.072;15.132;2023-02-15T12:49:44;43.73;;;15.77;;
20928;SDS011;21895;47.072;15.132;2023-02-15T12:52:37;39.67;;;15.63;;
20928;SDS011;21895;47.072;15.132;2023-02-15T12:55:23;38.93;;;16.43;;
20928;SDS011;21895;47.072;15.132;2023-02-15T12:58:08;40.83;;;16.20;;
20928;SDS011;21895;47.072;15.132;2023-02-15T13:00:47;33.00;;;15.23;;
20928;SDS011;21895;47.072;15.132;2023-02-15T13:03:48;44.70;;;15.97;;
20928;SDS011;21895;47.072;15.132;2023-02-15T13:07:01;35.40;;;15.50;;
20928;SDS011;21895;47.072;15.132;2023-02-15T13:12:20;37.73;;;17.00;;
20928;SDS011;21895;47.072;15.132;2023-02-15T13:14:52;43.33;;;15.77;;
20928;SDS011;21895;47.072;15.132;2023-02-15T13:17:24;43.10;;;15.93;;
20928;SDS011;21895;47.072;15.132;2023-02-15T13:19:56;41.77;;;18.07;;
20928;SDS011;21895;47.072;15.132;2023-02-15T13:22:39;42.50;;;16.00;;
20928;SDS011;21895;47.072;15.132;2023-02-15T13:25:12;49.10;;;17.90;;
20928;SDS011;21895;47.072;15.132;2023-02-15T13:27:52;39.37;;;16.47;;
20928;SDS011;21895;47.072;15.132;2023-02-15T13:30:27;43.83;;;17.70;;
20928;SDS011;21895;47.072;15.132;2023-02-15T13:33:04;42.27;;;17.33;;
20928;SDS011;21895;47.072;15.132;2023-02-15T13:35:59;44.57;;;17.37;;
20928;SDS011;21895;47.072;15.132;2023-02-15T13:44:16;42.13;;;17.43;;
20928;SDS011;21895;47.072;15.132;2023-02-15T13:53:19;41.80;;;17.73;;
20928;SDS011;21895;47.072;15.132;2023-02-15T14:21:04;51.53;;;19.23;;
20928;SDS011;21895;47.072;15.132;2023-02-15T14:28:25;39.00;;;17.23;;
20928;SDS011;21895;47.072;15.132;2023-02-15T14:31:08;47.17;;;18.47;;
20928;SDS011;21895;47.072;15.132;2023-02-15T14:33:40;51.63;;;20.47;;
20928;SDS011;21895;47.072;15.132;2023-02-15T14:36:18;50.87;;;20.63;;
20928;SDS011;21895;47.072;15.132;2023-02-15T14:39:34;60.73;;;21.13;;
20928;SDS011;21895;47.072;15.132;2023-02-15T14:44:00;49.97;;;19.33;;
20928;SDS011;21895;47.072;15.132;2023-02-15T14:52:07;47.57;;;19.13;;
20928;SDS011;21895;47.072;15.132;2023-02-15T14:57:25;44.73;;;18.83;;
20928;SDS011;21895;47.072;15.132;2023-02-15T15:00:00;52.13;;;20.80;;
20928;SDS011;21895;47.072;15.132;2023-02-15T15:02:43;62.67;;;21.00;;
20928;SDS011;21895;47.072;15.132;2023-02-15T15:05:20;51.07;;;19.80;;
20928;SDS011;21895;47.072;15.132;2023-02-15T15:08:01;50.90;;;19.10;;
20928;SDS011;21895;47.072;15.132;2023-02-15T15:10:38;55.40;;;20.23;;
20928;SDS011;21895;47.072;15.132;2023-02-15T15:17:04;53.57;;;20.13;;
20928;SDS011;21895;47.072;15.132;2023-02-15T15:23:37;55.73;;;19.60;;
20928;SDS011;21895;47.072;15.132;2023-02-15T15:26:26;55.90;;;21.47;;
20928;SDS011;21895;47.072;15.132;2023-02-15T15:28:59;50.97;;;20.17;;
20928;SDS011;21895;47.072;15.132;2023-02-15T15:31:43;56.97;;;20.93;;
20928;SDS011;21895;47.072;15.132;2023-02-15T15:34:47;50.87;;;20.27;;
20928;SDS011;21895;47.072;15.132;2023-02-15T15:37:52;50.63;;;20.47;;
20928;SDS011;21895;47.072;15.132;2023-02-15T15:48:37;51.93;;;19.07;;
20928;SDS011;21895;47.072;15.132;2023-02-15T15:51:10;54.50;;;21.30;;
20928;SDS011;21895;47.072;15.132;2023-02-15T15:53:58;53.73;;;20.47;;
20928;SDS011;21895;47.072;15.132;2023-02-15T15:56:29;50.07;;;20.53;;
20928;SDS011;21895;47.072;15.132;2023-02-15T15:59:04;53.80;;;19.97;;
20928;SDS011;21895;47.072;15.132;2023-02-15T16:01:41;59.13;;;20.97;;
20928;SDS011;21895;47.072;15.132;2023-02-15T16:04:10;57.13;;;21.33;;
20928;SDS011;21895;47.072;15.132;2023-02-15T16:06:47;64.37;;;20.60;;
20928;SDS011;21895;47.072;15.132;2023-02-15T16:09:21;52.83;;;20.30;;
20928;SDS011;21895;47.072;15.132;2023-02-15T16:11:52;60.17;;;21.47;;
20928;SDS011;21895;47.072;15.132;2023-02-15T16:14:29;54.57;;;20.73;;
20928;SDS011;21895;47.072;15.132;2023-02-15T16:17:07;57.97;;;19.97;;
20928;SDS011;21895;47.072;15.132;2023-02-15T16:19:45;56.73;;;20.20;;
20928;SDS011;21895;47.072;15.132;2023-02-15T16:22:13;59.43;;;20.33;;
20928;SDS011;21895;47.072;15.132;2023-02-15T16:25:30;54.70;;;20.60;;
20928;SDS011;21895;47.072;15.132;2023-02-15T16:28:34;58.70;;;20.60;;
20928;SDS011;21895;47.072;15.132;2023-02-15T16:31:05;54.00;;;20.10;;
20928;SDS011;21895;47.072;15.132;2023-02-15T16:33:39;57.23;;;20.83;;
20928;SDS011;21895;47.072;15.132;2023-02-15T16:36:26;55.40;;;19.87;;
20928;SDS011;21895;47.072;15.132;2023-02-15T16:41:34;70.03;;;19.13;;
20928;SDS011;21895;47.072;15.132;2023-02-15T16:44:04;76.10;;;20.67;;
20928;SDS011;21895;47.072;15.132;2023-02-15T16:46:43;75.10;;;21.03;;
20928;SDS011;21895;47.072;15.132;2023-02-15T16:49:18;77.53;;;21.17;;
20928;SDS011;21895;47.072;15.132;2023-02-15T16:52:02;63.87;;;21.07;;
20928;SDS011;21895;47.072;15.132;2023-02-15T16:54:31;62.00;;;21.10;;
20928;SDS011;21895;47.072;15.132;2023-02-15T16:57:00;53.73;;;19.27;;
20928;SDS011;21895;47.072;15.132;2023-02-15T16:59:32;55.63;;;19.83;;
20928;SDS011;21895;47.072;15.132;2023-02-15T17:02:17;57.57;;;19.00;;
20928;SDS011;21895;47.072;15.132;2023-02-15T17:05:20;76.77;;;20.47;;
20928;SDS011;21895;47.072;15.132;2023-02-15T17:07:52;78.73;;;20.70;;
20928;SDS011;21895;47.072;15.132;2023-02-15T17:11:17;68.57;;;20.40;;
20928;SDS011;21895;47.072;15.132;2023-02-15T17:17:06;70.27;;;18.10;;
20928;SDS011;21895;47.072;15.132;2023-02-15T17:19:44;50.63;;;18.97;;
20928;SDS011;21895;47.072;15.132;2023-02-15T17:22:18;53.90;;;19.87;;
20928;SDS011;21895;47.072;15.132;2023-02-15T17:24:49;58.70;;;19.00;;
20928;SDS011;21895;47.072;15.132;2023-02-15T17:27:25;51.40;;;17.50;;
20928;SDS011;21895;47.072;15.132;2023-02-15T17:29:57;61.63;;;19.37;;
20928;SDS011;21895;47.072;15.132;2023-02-15T17:32:28;67.50;;;21.20;;
20928;SDS011;21895;47.072;15.132;2023-02-15T17:35:06;55.50;;;19.73;;
20928;SDS011;21895;47.072;15.132;2023-02-15T17:37:46;60.27;;;20.77;;
20928;SDS011;21895;47.072;15.132;2023-02-15T17:40:18;57.03;;;19.83;;
20928;SDS011;21895;47.072;15.132;2023-02-15T17:42:56;53.63;;;19.20;;
20928;SDS011;21895;47.072;15.132;2023-02-15T17:45:24;70.20;;;21.77;;